首页
METAR-TAF:

METAR-TAF

机场 :

瓜达尔, 巴基斯坦

纬度: 25-13-59N, 经度: 062-19-46E, 海拔: 29米

METAR: 丢失

时间: 02:55 (21:55 UTC)

预报

该预报发布于4小时和55分钟前的17:00 UTC
预报有效从22日的 18点(UTC)到 23日的 18点(UTC)
风速8节,风向东南
能見度: 3000
多云层高于2500英尺
短暂存在
从 23日的 00点(UTC)到 23日的 04点(UTC)
风速4节,风向东南
能見度: 2000
散云层高于2000英尺
轻雾
短暂存在
从 23日的 12点(UTC)到 23日的 16点(UTC)
风速10节,风向南转西南,有时为20节阵风
能見度: 4000
散云层高于2000英尺
霾,

TAF: OPGD 221700Z 2218/2318 14008KT 3000 HZ BKN025 TEMPO 2300/2304 13004KT 2000 BR SCT020 TEMPO 2312/2316 21010G20KT 4000 HZ SCT020

超过4000个机场的气象观测和天气预报(METAR&TAF报告)。

可查询的气象台以黄色和红色小点在地图上表示。

将鼠标移到小点上方,可查看气象台名称。

然后点击查看天气观测和预报。

如需切换地图:点击带黑十字的绿色按钮放大地图;点击带横线的绿色按钮缩小地图;或者点击绿色箭头查看邻近地区的地图。


METAR-TAF: